sensor_id;sensor_type;location;lat;lon;timestamp;P1;durP1;ratioP1;P2;durP2;ratioP2
32697;SDS011;19087;51.062;3.754;2022-12-31T10:18:19;10.50;;;2.53;;
32697;SDS011;19087;51.062;3.754;2022-12-31T10:26:26;10.00;;;2.08;;
32697;SDS011;19087;51.062;3.754;2022-12-31T10:37:09;7.20;;;2.00;;
32697;SDS011;19087;51.062;3.754;2022-12-31T10:39:53;9.50;;;1.92;;
32697;SDS011;19087;51.062;3.754;2022-12-31T11:13:39;11.48;;;2.08;;
32697;SDS011;19087;51.062;3.754;2022-12-31T11:19:24;5.72;;;1.98;;
32697;SDS011;19087;51.062;3.754;2022-12-31T11:22:08;15.25;;;2.75;;
32697;SDS011;19087;51.062;3.754;2022-12-31T11:44:33;7.07;;;2.00;;
32697;SDS011;19087;51.062;3.754;2022-12-31T11:47:34;7.00;;;1.92;;
32697;SDS011;19087;51.062;3.754;2022-12-31T11:56:34;8.52;;;2.45;;
32697;SDS011;19087;51.062;3.754;2022-12-31T11:59:10;11.48;;;2.97;;
32697;SDS011;19087;51.062;3.754;2022-12-31T12:04:16;7.60;;;2.05;;
32697;SDS011;19087;51.062;3.754;2022-12-31T12:06:43;10.05;;;2.33;;
32697;SDS011;19087;51.062;3.754;2022-12-31T12:11:40;11.70;;;2.65;;
32697;SDS011;19087;51.062;3.754;2022-12-31T12:16:59;12.68;;;2.35;;
32697;SDS011;19087;51.062;3.754;2022-12-31T12:19:26;9.68;;;2.17;;
32697;SDS011;19087;51.062;3.754;2022-12-31T12:21:55;6.68;;;2.20;;
32697;SDS011;19087;51.062;3.754;2022-12-31T12:24:24;9.85;;;2.30;;
32697;SDS011;19087;51.062;3.754;2022-12-31T12:26:55;6.95;;;1.95;;
32697;SDS011;19087;51.062;3.754;2022-12-31T12:29:31;16.35;;;2.42;;
32697;SDS011;19087;51.062;3.754;2022-12-31T12:32:15;12.50;;;3.05;;
32697;SDS011;19087;51.062;3.754;2022-12-31T12:34:53;12.93;;;2.38;;
32697;SDS011;19087;51.062;3.754;2022-12-31T12:40:02;15.10;;;3.28;;
32697;SDS011;19087;51.062;3.754;2022-12-31T12:42:30;13.00;;;2.80;;
32697;SDS011;19087;51.062;3.754;2022-12-31T12:45:15;13.38;;;2.15;;
32697;SDS011;19087;51.062;3.754;2022-12-31T12:47:45;11.27;;;2.33;;
32697;SDS011;19087;51.062;3.754;2022-12-31T12:50:16;9.60;;;2.30;;
32697;SDS011;19087;51.062;3.754;2022-12-31T13:04:12;17.60;;;2.72;;
32697;SDS011;19087;51.062;3.754;2022-12-31T13:14:20;17.00;;;3.55;;
32697;SDS011;19087;51.062;3.754;2022-12-31T13:17:00;15.68;;;3.75;;
32697;SDS011;19087;51.062;3.754;2022-12-31T13:19:48;16.83;;;3.88;;
32697;SDS011;19087;51.062;3.754;2022-12-31T13:22:38;13.45;;;4.43;;
32697;SDS011;19087;51.062;3.754;2022-12-31T13:27:49;18.15;;;3.22;;
32697;SDS011;19087;51.062;3.754;2022-12-31T13:30:22;14.50;;;3.42;;
32697;SDS011;19087;51.062;3.754;2022-12-31T13:32:56;9.95;;;2.72;;
32697;SDS011;19087;51.062;3.754;2022-12-31T13:35:32;15.65;;;3.08;;
32697;SDS011;19087;51.062;3.754;2022-12-31T13:38:21;16.50;;;3.58;;
32697;SDS011;19087;51.062;3.754;2022-12-31T13:41:00;16.85;;;3.53;;
32697;SDS011;19087;51.062;3.754;2022-12-31T13:43:38;17.13;;;4.22;;
32697;SDS011;19087;51.062;3.754;2022-12-31T13:51:57;16.20;;;3.22;;
32697;SDS011;19087;51.062;3.754;2022-12-31T13:54:50;13.20;;;3.30;;
32697;SDS011;19087;51.062;3.754;2022-12-31T13:57:47;20.05;;;3.53;;
32697;SDS011;19087;51.062;3.754;2022-12-31T14:00:21;11.50;;;3.85;;
32697;SDS011;19087;51.062;3.754;2022-12-31T14:08:57;14.07;;;3.10;;
32697;SDS011;19087;51.062;3.754;2022-12-31T14:25:35;15.35;;;2.88;;
32697;SDS011;19087;51.062;3.754;2022-12-31T14:28:18;13.90;;;3.70;;
32697;SDS011;19087;51.062;3.754;2022-12-31T14:30:50;17.92;;;4.22;;
32697;SDS011;19087;51.062;3.754;2022-12-31T14:33:42;14.98;;;3.67;;
32697;SDS011;19087;51.062;3.754;2022-12-31T14:39:12;17.55;;;3.42;;
32697;SDS011;19087;51.062;3.754;2022-12-31T14:42:07;16.98;;;3.35;;
32697;SDS011;19087;51.062;3.754;2022-12-31T14:45:16;20.02;;;3.72;;
32697;SDS011;19087;51.062;3.754;2022-12-31T14:50:28;15.05;;;3.30;;
32697;SDS011;19087;51.062;3.754;2022-12-31T14:53:05;10.85;;;3.67;;
32697;SDS011;19087;51.062;3.754;2022-12-31T14:55:41;15.38;;;3.05;;
32697;SDS011;19087;51.062;3.754;2022-12-31T14:58:28;12.00;;;2.63;;
32697;SDS011;19087;51.062;3.754;2022-12-31T15:00:58;10.82;;;3.33;;
32697;SDS011;19087;51.062;3.754;2022-12-31T15:03:38;16.63;;;3.80;;
32697;SDS011;19087;51.062;3.754;2022-12-31T15:23:00;13.80;;;3.50;;
32697;SDS011;19087;51.062;3.754;2022-12-31T15:25:27;16.75;;;3.55;;
32697;SDS011;19087;51.062;3.754;2022-12-31T15:27:58;17.98;;;3.63;;
32697;SDS011;19087;51.062;3.754;2022-12-31T15:32:57;12.65;;;3.28;;
32697;SDS011;19087;51.062;3.754;2022-12-31T15:35:31;12.60;;;3.67;;
32697;SDS011;19087;51.062;3.754;2022-12-31T15:38:34;14.27;;;4.05;;
32697;SDS011;19087;51.062;3.754;2022-12-31T15:41:12;11.77;;;3.22;;
32697;SDS011;19087;51.062;3.754;2022-12-31T15:46:37;13.15;;;3.60;;
32697;SDS011;19087;51.062;3.754;2022-12-31T15:49:15;10.85;;;3.22;;
32697;SDS011;19087;51.062;3.754;2022-12-31T15:51:50;14.50;;;2.80;;
32697;SDS011;19087;51.062;3.754;2022-12-31T15:54:35;13.57;;;3.55;;
32697;SDS011;19087;51.062;3.754;2022-12-31T15:57:04;15.57;;;3.83;;
32697;SDS011;19087;51.062;3.754;2022-12-31T15:59:36;11.88;;;3.25;;
32697;SDS011;19087;51.062;3.754;2022-12-31T16:02:03;10.75;;;3.75;;
32697;SDS011;19087;51.062;3.754;2022-12-31T16:04:45;7.95;;;2.97;;
32697;SDS011;19087;51.062;3.754;2022-12-31T16:07:12;14.77;;;4.00;;
32697;SDS011;19087;51.062;3.754;2022-12-31T16:09:38;10.88;;;3.08;;
32697;SDS011;19087;51.062;3.754;2022-12-31T16:12:09;13.02;;;3.72;;
32697;SDS011;19087;51.062;3.754;2022-12-31T16:14:41;18.52;;;7.15;;
32697;SDS011;19087;51.062;3.754;2022-12-31T16:17:20;16.42;;;4.50;;
32697;SDS011;19087;51.062;3.754;2022-12-31T16:19:56;12.82;;;3.60;;
32697;SDS011;19087;51.062;3.754;2022-12-31T16:22:24;15.02;;;4.97;;
32697;SDS011;19087;51.062;3.754;2022-12-31T16:24:54;10.40;;;3.58;;
32697;SDS011;19087;51.062;3.754;2022-12-31T16:27:21;10.05;;;2.92;;
32697;SDS011;19087;51.062;3.754;2022-12-31T16:29:50;16.35;;;4.05;;
32697;SDS011;19087;51.062;3.754;2022-12-31T16:32:24;8.32;;;3.08;;
32697;SDS011;19087;51.062;3.754;2022-12-31T16:34:50;12.05;;;3.40;;
32697;SDS011;19087;51.062;3.754;2022-12-31T16:37:19;16.73;;;4.50;;
32697;SDS011;19087;51.062;3.754;2022-12-31T16:42:25;16.35;;;4.80;;
32697;SDS011;19087;51.062;3.754;2022-12-31T16:44:53;15.73;;;5.22;;
32697;SDS011;19087;51.062;3.754;2022-12-31T16:47:30;12.13;;;4.72;;
32697;SDS011;19087;51.062;3.754;2022-12-31T16:50:15;10.82;;;4.50;;
32697;SDS011;19087;51.062;3.754;2022-12-31T16:52:45;15.13;;;3.90;;
